x

South Georgian Bay (45143) Wave Buoy

4:00am - Tue 23rd Sep 2014 All times are CDT. -5 hours from GMT.

  • Sig Wave height 2.3ft
  • Peak Period 4s
  • Wind
    16mph, 20mph gusts
  • Sea Temp 59°f
  • Air Temp 57°f
  • Sea Pressure 1021.9mb
  • South Georgian Bay
  • South Georgian Bay

More Historic Weather Station data

Upgrade to MSW Pro to gain access to the past 30 days of data for over 8000 Wavebouys and Weather Stations around the globe.

Join Pro

Comparision Forecast

View Surf forecast
   
Tue 09/23 4:00am 2.5ft 4s 16 20 mph 1021.9mb 59f 57f
3:00am 2ft 3s 18 20 mph 1021.6mb 59f 57f
2:00am 2ft 3s 16 18 mph 1021.4mb 59f 57f
1:00am 2ft 4s 13 18 mph 1021.5mb 58f 56f
12:00am 2.5ft 3s 13 16 mph 1021.5mb 58f 56f
Mon 09/22 11:00pm 2.5ft 4s 16 18 mph 1021.4mb 58f 54f
10:00pm 3ft 4s 16 18 mph 1021.1mb 58f 53f
9:00pm 3ft 4s 16 18 mph 1020.8mb 58f 54f
8:00pm 3ft 5s 20 22 mph 1020.4mb 59f 55f
7:00pm 3.5ft 5s 18 22 mph 1020mb 59f 54f
6:00pm 3.5ft 5s 18 22 mph 1019.6mb 59f 54f
5:00pm 3.5ft 4s 18 22 mph 1019.6mb 59f 54f
4:00pm 3.5ft 5s 20 25 mph 1019.7mb 59f 53f
2:00pm 3.5ft 5s 20 25 mph 1019mb 59f 52f
1:00pm 3.5ft 5s 16 20 mph 1019.1mb 59f 51f
12:00pm 4ft 5s 18 25 mph 1019.1mb 59f 50f
11:00am 4.5ft 5s 20 22 mph 1019.1mb 59f 49f
10:00am 4.5ft 5s 18 22 mph 1018.8mb 58f 49f
9:00am 5ft 5s 20 25 mph 1018.3mb 58f 49f
7:00am 4.5ft 5s 20 27 mph 1016.9mb 58f 49f
6:00am 4.5ft 6s 22 29 mph 1016.4mb 58f 49f
5:00am 5ft 6s 20 25 mph 1015.4mb 58f 49f
4:00am  -   -  20
mph
- - -
3:00am 5.5ft 6s 22 27 mph 1013.9mb 58f 50f
2:00am 6ft 6s 22
mph
1013mb 58f 50f
1:00am 6ft 7s 22 27 mph 1012.6mb 58f 50f
12:00am  -   -  22
mph
- - -
Sun 09/21 11:00pm 6.5ft 6s 27 31 mph 1011.7mb 58f 51f
10:00pm 7.5ft 7s 27 34 mph 1010.9mb 58f 52f
9:00pm 8ft 7s 27 34 mph 1010.7mb 58f 51f
8:00pm 7.5ft 7s 29 36 mph 1010mb 58f 50f
7:00pm 7ft 7s 29 36 mph 1008.9mb 58f 50f
5:00pm 6ft 6s 27 34 mph 1005.7mb 58f 52f
4:00pm 6ft 6s 25 29 mph 1004.2mb 58f 53f
3:00pm  -   -  25
mph
1002.9mb 58f 53f
2:00pm 5ft 6s 25 29 mph 1002.4mb 58f 53f
1:00pm 4.5ft 6s 22 25 mph 1002mb 59f 54f
12:00pm 3.5ft 5s 20 25 mph 1001.3mb 59f 55f
11:00am 2ft 4s 16 18 mph 1000.5mb 59f 56f
10:00am 1ft 3s 13 16 mph 999.8mb 59f 59f
9:00am 0.7ft 2s 11 16 mph 999mb 59f 60f
8:00am 0.7ft 2s 9 11 mph 999.5mb 59f 60f
7:00am 0.7ft 2s 7 9 mph 999.9mb 59f 60f
6:00am 1ft 2s 4 7 mph 1001.3mb 59f 61f
5:00am 1ft 3s 4 7 mph 1001.9mb 59f 61f
4:00am 1.3ft 3s 2
mph
1002.1mb 59f 61f
3:00am 1.3ft 3s 4 7 mph 1002.7mb 59f 62f
2:00am 1.6ft 3s 11 13 mph 1003.3mb 59f 62f
1:00am 2.5ft 3s 16 18 mph 1003mb 59f 62f
12:00am 2ft 3s 13 16 mph 1004mb 59f 62f
Sat 09/20 11:00pm 2ft 4s 11 22 mph 1004.5mb 59f 61f
10:00pm 2ft 4s 16 18 mph 1004.6mb 59f 62f
9:00pm 2.5ft 4s 18 20 mph 1005.1mb 59f 62f
8:00pm 1.6ft 3s 20 25 mph 1005.1mb 59f 63f
7:00pm 1.6ft 3s 16 18 mph 1004.8mb 58f 65f
6:00pm 1.6ft 3s 16 18 mph 1005mb 58f 65f
5:00pm 2.5ft 4s 13
mph
1006.5mb 58f 63f
4:00pm 2ft 3s 18 20 mph 1006.4mb 58f 64f
3:00pm 2ft 3s 20 22 mph 1006.8mb 58f 64f
2:00pm 2ft 4s 18 20 mph 1007.6mb 58f 62f
1:00pm 2.5ft 4s 16 18 mph 1008.9mb 58f 61f
12:00pm 2.5ft 4s 18 20 mph 1008.7mb 58f 61f
11:00am 3ft 4s 20 22 mph 1009.4mb 58f 61f
10:00am 3.5ft 4s 18 22 mph 1009.6mb 58f 60f
9:00am 4.5ft 5s 25 36 mph 1010.5mb 58f 59f
8:00am 3.5ft 4s 27 31 mph 1010.5mb 58f 61f
7:00am 3.5ft 4s 25 31 mph 1010.7mb 58f 62f
6:00am 3ft 4s 25 29 mph 1011.4mb 58f 61f
5:00am 3ft 4s 20 25 mph 1012.2mb 58f 60f
4:00am 3ft 4s 22 25 mph 1012.5mb 58f 59f
3:00am 2.5ft 4s 18 22 mph 1013.2mb 58f 60f
2:00am 2.5ft 4s 16 20 mph 1014.6mb 58f 58f
1:00am 2.5ft 5s 13 16 mph 1015.2mb 58f 57f
12:00am 3ft 5s 11 13 mph 1016.2mb 58f 57f
Fri 09/19 11:00pm 3.5ft 5s 13 18 mph 1016.7mb 58f 56f
10:00pm 3.5ft 5s 18 22 mph 1017mb 58f 55f
9:00pm 3.5ft 5s 22 27 mph 1017.6mb 58f 55f
8:00pm 3.5ft 5s 22 27 mph 1017.7mb 58f 56f
7:00pm 4ft 5s 22 27 mph 1018.3mb 58f 57f
6:00pm 4ft 4s 22 27 mph 1018.9mb 59f 58f
5:00pm 3.5ft 5s 22 27 mph 1019.8mb 59f 58f
4:00pm 3.5ft 5s 20 25 mph 1020.8mb 59f 58f
3:00pm 3.5ft 5s 18 22 mph 1021.5mb 59f 58f
2:00pm 3.5ft 5s 20 25 mph 1022.3mb 59f 57f
1:00pm 3.5ft 5s 20 22 mph 1023.2mb 59f 55f
12:00pm 3ft 5s 18 22 mph 1024.2mb 59f 54f
11:00am 3.5ft 5s 18 22 mph 1025.2mb 59f 52f